Time;durP1;ratioP1;P1;durP2;ratioP2;P2;SDS_P1;SDS_P2;PMS_P1;PMS_P2;Temp;Humidity;BMP_temperature;BMP_pressure;BME280_temperature;BME280_humidity;BME280_pressure;Samples;Min_cycle;Max_cycle;Signal;HPM_P1;HPM_P2
2023/02/08 00:02:04;;;;;;;6.80;4.70;;;;;;;;;;5063279;28;20255;-81
2023/02/08 00:04:30;;;;;;;8.47;5.13;;;;;;;;;;5064371;28;20206;-81
2023/02/08 00:06:58;;;;;;;5.97;4.20;;;;;;;;;;5050511;28;20202;-85
2023/02/08 00:09:25;;;;;;;5.87;4.30;;;;;;;;;;5054022;28;20749;-81
2023/02/08 00:11:52;;;;;;;5.93;4.40;;;;;;;;;;5054350;28;20637;-81
2023/02/08 00:14:19;;;;;;;5.27;4.00;;;;;;;;;;5054185;28;20206;-80
2023/02/08 00:16:45;;;;;;;6.80;4.80;;;;;;;;;;5054151;28;20696;-82
2023/02/08 00:19:12;;;;;;;8.50;5.67;;;;;;;;;;5066666;28;20260;-81
2023/02/08 00:21:39;;;;;;;6.87;4.10;;;;;;;;;;5067529;28;20591;-81
2023/02/08 00:24:07;;;;;;;4.53;3.33;;;;;;;;;;5066590;28;20247;-81
2023/02/08 00:26:34;;;;;;;6.07;4.03;;;;;;;;;;5054235;28;20259;-81
2023/02/08 00:29:01;;;;;;;5.63;3.70;;;;;;;;;;5074271;28;20204;-81
2023/02/08 00:31:28;;;;;;;5.27;4.33;;;;;;;;;;5073891;28;20220;-81
2023/02/08 00:33:57;;;;;;;5.33;4.40;;;;;;;;;;5073426;28;20251;-81
2023/02/08 00:36:24;;;;;;;6.37;5.00;;;;;;;;;;5071732;28;20221;-81
2023/02/08 00:38:50;;;;;;;5.13;4.63;;;;;;;;;;5053676;28;20209;-81
2023/02/08 00:41:18;;;;;;;3.93;3.53;;;;;;;;;;5055345;28;20198;-81
2023/02/08 00:43:45;;;;;;;3.53;2.63;;;;;;;;;;5072969;28;20206;-81
2023/02/08 00:46:12;;;;;;;4.70;3.20;;;;;;;;;;5059430;28;20198;-81
2023/02/08 00:48:39;;;;;;;3.07;2.77;;;;;;;;;;5064528;28;20208;-81
2023/02/08 00:51:09;;;;;;;3.87;3.13;;;;;;;;;;5066440;28;20229;-81
2023/02/08 00:53:36;;;;;;;2.90;2.37;;;;;;;;;;5053772;28;20209;-82
2023/02/08 00:56:03;;;;;;;2.73;2.50;;;;;;;;;;5056451;28;20292;-82
2023/02/08 00:58:31;;;;;;;3.13;2.80;;;;;;;;;;5073466;28;20201;-84
2023/02/08 01:00:58;;;;;;;3.90;2.63;;;;;;;;;;5059612;28;20737;-82
2023/02/08 01:03:25;;;;;;;3.50;2.33;;;;;;;;;;5072765;28;20680;-82
2023/02/08 01:05:52;;;;;;;2.40;2.17;;;;;;;;;;5068899;28;20226;-81
2023/02/08 01:08:20;;;;;;;2.90;2.43;;;;;;;;;;5053256;28;20263;-81
2023/02/08 01:10:47;;;;;;;3.97;3.30;;;;;;;;;;5052710;28;20608;-81
2023/02/08 01:13:13;;;;;;;4.07;3.60;;;;;;;;;;5053293;28;20304;-82
2023/02/08 01:15:42;;;;;;;4.83;3.67;;;;;;;;;;5057261;28;20198;-81
2023/02/08 01:18:09;;;;;;;4.43;2.87;;;;;;;;;;5061099;28;20206;-81
2023/02/08 01:20:36;;;;;;;3.73;3.23;;;;;;;;;;5070755;28;20208;-81
2023/02/08 01:23:03;;;;;;;3.37;2.90;;;;;;;;;;5073320;28;20204;-82
2023/02/08 01:25:31;;;;;;;3.80;3.37;;;;;;;;;;5053456;28;20753;-81
2023/02/08 01:27:58;;;;;;;4.83;2.67;;;;;;;;;;5052762;28;20206;-81
2023/02/08 01:30:24;;;;;;;3.73;3.13;;;;;;;;;;5052447;28;20299;-82
2023/02/08 01:32:52;;;;;;;4.33;3.50;;;;;;;;;;5052977;28;20194;-81
2023/02/08 01:35:19;;;;;;;3.17;2.80;;;;;;;;;;5059187;28;20197;-81
2023/02/08 01:37:46;;;;;;;4.67;3.53;;;;;;;;;;5072272;28;20205;-82
2023/02/08 01:40:13;;;;;;;11.63;4.50;;;;;;;;;;5039564;28;20213;-81
2023/02/08 01:42:39;;;;;;;4.53;3.73;;;;;;;;;;5065911;28;20193;-81
2023/02/08 01:45:24;;;;;;;4.10;3.50;;;;;;;;;;5052341;28;20676;-81
2023/02/08 01:47:55;;;;;;;4.00;3.67;;;;;;;;;;5054711;28;20591;-81
2023/02/08 01:50:24;;;;;;;5.87;3.77;;;;;;;;;;5061974;28;20236;-81
2023/02/08 01:52:51;;;;;;;4.33;3.87;;;;;;;;;;5056308;28;20251;-81
2023/02/08 01:55:21;;;;;;;6.77;4.43;;;;;;;;;;5060789;28;20673;-81
2023/02/08 01:57:51;;;;;;;5.90;4.53;;;;;;;;;;5065152;28;20677;-81
2023/02/08 02:00:21;;;;;;;6.80;4.83;;;;;;;;;;5064127;28;20223;-81
2023/02/08 02:02:48;;;;;;;4.13;3.60;;;;;;;;;;5058815;28;20201;-81
2023/02/08 02:05:16;;;;;;;8.77;5.73;;;;;;;;;;5058809;28;20287;-81
2023/02/08 02:07:43;;;;;;;6.90;5.63;;;;;;;;;;5052372;28;20255;-81
2023/02/08 02:10:13;;;;;;;7.63;4.50;;;;;;;;;;5064890;28;20479;-82
2023/02/08 02:12:41;;;;;;;6.03;5.33;;;;;;;;;;5051950;28;20639;-81
2023/02/08 02:15:09;;;;;;;7.97;5.17;;;;;;;;;;5051629;28;20202;-81
2023/02/08 02:17:36;;;;;;;9.73;6.00;;;;;;;;;;5051473;28;20256;-81
2023/02/08 02:20:08;;;;;;;9.90;5.83;;;;;;;;;;5065318;28;20512;-81
2023/02/08 02:23:08;;;;;;;6.97;4.80;;;;;;;;;;5060341;28;20209;-82
2023/02/08 02:26:01;;;;;;;9.00;4.93;;;;;;;;;;5051167;28;20708;-82
2023/02/08 02:28:48;;;;;;;5.80;4.57;;;;;;;;;;5065177;28;20456;-81
2023/02/08 02:31:48;;;;;;;8.23;5.77;;;;;;;;;;5050814;28;20716;-81
2023/02/08 02:34:20;;;;;;;7.13;5.50;;;;;;;;;;5062619;28;20458;-81
2023/02/08 02:36:51;;;;;;;6.80;5.37;;;;;;;;;;5052270;28;20578;-81
2023/02/08 02:39:23;;;;;;;8.57;5.63;;;;;;;;;;5051497;28;20881;-81
2023/02/08 02:44:49;;;;;;;7.80;5.77;;;;;;;;;;5053733;28;20447;-81
2023/02/08 02:47:22;;;;;;;5.80;4.80;;;;;;;;;;5051137;28;20467;-81
2023/02/08 02:49:50;;;;;;;9.33;6.80;;;;;;;;;;5057304;28;20455;-80
2023/02/08 02:52:20;;;;;;;8.00;5.37;;;;;;;;;;5057958;28;20484;-81
2023/02/08 02:54:50;;;;;;;7.77;5.67;;;;;;;;;;5038019;28;20532;-82
2023/02/08 02:57:20;;;;;;;9.57;6.20;;;;;;;;;;5052125;28;21045;-81
2023/02/08 02:59:47;;;;;;;8.07;5.63;;;;;;;;;;5070807;28;20205;-81
2023/02/08 03:02:14;;;;;;;7.70;5.53;;;;;;;;;;5055375;28;20452;-80
2023/02/08 03:04:51;;;;;;;7.70;6.20;;;;;;;;;;5051190;28;20597;-81
2023/02/08 03:07:36;;;;;;;8.43;6.07;;;;;;;;;;5068030;28;20439;-81
2023/02/08 03:10:11;;;;;;;9.43;6.10;;;;;;;;;;5057862;28;20213;-80
2023/02/08 03:12:45;;;;;;;8.67;5.73;;;;;;;;;;5063808;28;20459;-81
2023/02/08 03:15:22;;;;;;;8.43;5.40;;;;;;;;;;5051442;28;20209;-81
2023/02/08 03:17:57;;;;;;;9.53;6.50;;;;;;;;;;5061327;28;20456;-81
2023/02/08 03:20:28;;;;;;;8.67;6.40;;;;;;;;;;5051016;28;20448;-81
2023/02/08 03:23:00;;;;;;;8.03;6.20;;;;;;;;;;5050912;28;20441;-81
2023/02/08 03:25:32;;;;;;;12.77;6.77;;;;;;;;;;5069473;28;20205;-81
2023/02/08 03:28:04;;;;;;;10.83;7.37;;;;;;;;;;5070750;28;20455;-80
2023/02/08 03:30:33;;;;;;;8.43;5.60;;;;;;;;;;5044867;28;20919;-80
2023/02/08 03:33:03;;;;;;;11.10;6.63;;;;;;;;;;5056810;28;20464;-81
2023/02/08 03:35:33;;;;;;;12.20;7.80;;;;;;;;;;5059062;28;20209;-79
2023/02/08 03:38:01;;;;;;;8.50;5.93;;;;;;;;;;5056963;28;20436;-80
2023/02/08 03:40:31;;;;;;;9.20;6.63;;;;;;;;;;5061679;28;20445;-80
2023/02/08 03:43:00;;;;;;;9.03;7.20;;;;;;;;;;5069297;28;20447;-81
2023/02/08 03:45:30;;;;;;;10.70;7.00;;;;;;;;;;5064779;28;20467;-80
2023/02/08 03:48:00;;;;;;;9.17;6.53;;;;;;;;;;5071210;28;20462;-80
2023/02/08 03:50:29;;;;;;;7.43;5.87;;;;;;;;;;5074100;28;20459;-80
2023/02/08 03:52:58;;;;;;;8.60;6.00;;;;;;;;;;5074198;28;20435;-80
2023/02/08 03:55:28;;;;;;;10.70;7.63;;;;;;;;;;5073997;28;20270;-80
2023/02/08 03:57:58;;;;;;;9.37;6.27;;;;;;;;;;5060172;28;20451;-80
2023/02/08 04:00:25;;;;;;;11.57;7.10;;;;;;;;;;5074360;28;20204;-79
2023/02/08 04:02:55;;;;;;;8.67;5.97;;;;;;;;;;5074485;28;20888;-79
2023/02/08 04:05:24;;;;;;;10.60;6.53;;;;;;;;;;5073934;28;20463;-81
2023/02/08 04:07:50;;;;;;;12.10;6.97;;;;;;;;;;5040851;28;20456;-80
2023/02/08 04:10:19;;;;;;;7.80;6.17;;;;;;;;;;5054553;28;20217;-80
2023/02/08 04:12:47;;;;;;;8.53;6.33;;;;;;;;;;5073824;28;20490;-79
2023/02/08 04:15:14;;;;;;;10.10;6.50;;;;;;;;;;5073232;28;21059;-81
2023/02/08 04:17:40;;;;;;;9.10;6.20;;;;;;;;;;5073599;28;20443;-80
2023/02/08 04:20:08;;;;;;;7.93;5.87;;;;;;;;;;5073345;28;20500;-81
2023/02/08 04:22:35;;;;;;;7.33;5.80;;;;;;;;;;5074282;28;20504;-82
2023/02/08 04:25:01;;;;;;;8.87;6.67;;;;;;;;;;5073791;28;20459;-81
2023/02/08 04:27:30;;;;;;;10.43;7.07;;;;;;;;;;5065969;28;20209;-77
2023/02/08 04:29:56;;;;;;;8.83;6.27;;;;;;;;;;5057153;28;20206;-78
2023/02/08 04:32:23;;;;;;;9.27;6.40;;;;;;;;;;5055811;28;20263;-83
2023/02/08 04:34:50;;;;;;;8.70;7.30;;;;;;;;;;5066888;28;20509;-83
2023/02/08 04:37:16;;;;;;;11.10;7.77;;;;;;;;;;5053738;28;20259;-82
2023/02/08 04:39:52;;;;;;;7.60;6.80;;;;;;;;;;5053710;28;20498;-83
2023/02/08 04:42:19;;;;;;;12.90;8.20;;;;;;;;;;5053716;28;20506;-81
2023/02/08 04:44:47;;;;;;;12.80;7.87;;;;;;;;;;5067467;28;20214;-83
2023/02/08 04:47:13;;;;;;;13.27;6.53;;;;;;;;;;5066316;28;20703;-82
2023/02/08 04:49:40;;;;;;;10.47;6.77;;;;;;;;;;5054457;28;20264;-82
2023/02/08 04:52:07;;;;;;;9.80;6.67;;;;;;;;;;5066305;28;20723;-82
2023/02/08 04:54:34;;;;;;;9.70;7.03;;;;;;;;;;5073009;28;20263;-82
2023/02/08 04:57:01;;;;;;;11.20;7.40;;;;;;;;;;5060653;28;20267;-82
2023/02/08 04:59:28;;;;;;;7.93;6.37;;;;;;;;;;5053540;28;20208;-82
2023/02/08 05:01:56;;;;;;;8.13;6.10;;;;;;;;;;5066813;28;20897;-81
2023/02/08 05:04:23;;;;;;;10.23;6.97;;;;;;;;;;5066349;28;20730;-82
2023/02/08 05:06:49;;;;;;;8.30;6.87;;;;;;;;;;5053641;28;20452;-82
2023/02/08 05:09:16;;;;;;;11.13;6.50;;;;;;;;;;5053479;28;20275;-82
2023/02/08 05:11:43;;;;;;;12.17;7.33;;;;;;;;;;5055217;28;20230;-82
2023/02/08 05:14:10;;;;;;;10.37;7.17;;;;;;;;;;5072547;28;20201;-83
2023/02/08 05:16:36;;;;;;;10.67;6.87;;;;;;;;;;5060248;28;21051;-83
2023/02/08 05:19:05;;;;;;;6.87;5.90;;;;;;;;;;5072688;28;20205;-82
2023/02/08 05:21:31;;;;;;;8.40;6.07;;;;;;;;;;5073025;28;20881;-92
2023/02/08 05:23:58;;;;;;;9.13;6.87;;;;;;;;;;5052992;28;20209;-82
2023/02/08 05:26:25;;;;;;;10.57;6.17;;;;;;;;;;5052987;28;20260;-83
2023/02/08 05:28:51;;;;;;;7.13;6.37;;;;;;;;;;5066012;28;20263;-82
2023/02/08 05:31:20;;;;;;;10.40;6.90;;;;;;;;;;5052672;28;20928;-83
2023/02/08 05:33:47;;;;;;;8.93;6.07;;;;;;;;;;5065163;28;20683;-83
2023/02/08 05:36:15;;;;;;;8.57;6.40;;;;;;;;;;5066115;28;20209;-83
2023/02/08 05:38:42;;;;;;;10.83;6.67;;;;;;;;;;5060676;28;20213;-83
2023/02/08 05:41:09;;;;;;;8.37;5.57;;;;;;;;;;5071462;28;20201;-84
2023/02/08 05:43:36;;;;;;;11.67;6.33;;;;;;;;;;5060825;28;20447;-83
2023/02/08 05:46:03;;;;;;;8.70;6.07;;;;;;;;;;5070632;28;20458;-82
2023/02/08 05:48:30;;;;;;;11.10;7.13;;;;;;;;;;5061417;28;20443;-83
2023/02/08 05:50:58;;;;;;;10.30;6.70;;;;;;;;;;5072255;28;20270;-83
2023/02/08 05:53:26;;;;;;;8.90;7.00;;;;;;;;;;5063319;28;20688;-83
2023/02/08 05:55:53;;;;;;;7.77;6.10;;;;;;;;;;5052202;28;20462;-82
2023/02/08 05:58:20;;;;;;;8.63;5.77;;;;;;;;;;5052808;28;20550;-83
2023/02/08 06:00:47;;;;;;;9.93;6.77;;;;;;;;;;5065975;28;20214;-83
2023/02/08 06:03:14;;;;;;;10.50;7.80;;;;;;;;;;5051941;28;20459;-85
2023/02/08 06:05:41;;;;;;;6.93;5.80;;;;;;;;;;5051085;28;20460;-82
2023/02/08 06:08:08;;;;;;;8.20;5.87;;;;;;;;;;5052129;28;20506;-85
2023/02/08 06:10:36;;;;;;;8.77;6.33;;;;;;;;;;5054926;28;20448;-83
2023/02/08 06:13:03;;;;;;;9.80;7.37;;;;;;;;;;5062310;28;20491;-83
2023/02/08 06:15:31;;;;;;;12.83;7.50;;;;;;;;;;5055138;28;20835;-83
2023/02/08 06:17:58;;;;;;;54.97;27.30;;;;;;;;;;5061924;28;20456;-83
2023/02/08 06:20:25;;;;;;;23.97;15.97;;;;;;;;;;5064624;28;20468;-83
2023/02/08 06:22:52;;;;;;;24.43;17.10;;;;;;;;;;5052175;28;20840;-83
2023/02/08 06:25:19;;;;;;;16.53;10.33;;;;;;;;;;5069098;28;20451;-83
2023/02/08 06:27:47;;;;;;;13.53;11.33;;;;;;;;;;5060607;28;20449;-83
2023/02/08 06:30:14;;;;;;;11.43;8.60;;;;;;;;;;5056772;28;20453;-83
2023/02/08 06:32:40;;;;;;;11.40;8.23;;;;;;;;;;5071609;28;21032;-84
2023/02/08 06:35:08;;;;;;;9.00;6.57;;;;;;;;;;5053264;28;20467;-83
2023/02/08 06:37:35;;;;;;;14.40;9.23;;;;;;;;;;5052045;28;20464;-83
2023/02/08 06:40:01;;;;;;;12.47;9.10;;;;;;;;;;5051729;28;20457;-83
2023/02/08 06:42:28;;;;;;;11.90;8.17;;;;;;;;;;5051823;28;20464;-84
2023/02/08 06:44:57;;;;;;;15.47;9.40;;;;;;;;;;5065145;28;20441;-84
2023/02/08 06:47:24;;;;;;;12.70;8.93;;;;;;;;;;5051412;28;20260;-84
2023/02/08 06:49:51;;;;;;;12.63;8.70;;;;;;;;;;5070613;28;20447;-86
2023/02/08 06:52:19;;;;;;;11.73;8.47;;;;;;;;;;5071347;28;20534;-85
2023/02/08 06:54:45;;;;;;;18.00;10.37;;;;;;;;;;5052056;28;20449;-86
2023/02/08 06:57:12;;;;;;;20.30;10.67;;;;;;;;;;5051918;28;20448;-87
2023/02/08 06:59:39;;;;;;;12.30;8.47;;;;;;;;;;5071636;28;20442;-88
2023/02/08 07:02:11;;;;;;;12.57;7.90;;;;;;;;;;5058738;28;20205;-85
2023/02/08 07:04:38;;;;;;;11.23;7.40;;;;;;;;;;5045782;28;20474;-87
2023/02/08 07:07:05;;;;;;;17.50;9.27;;;;;;;;;;5058178;28;20982;-86
2023/02/08 07:09:35;;;;;;;9.57;5.83;;;;;;;;;;5064042;28;20277;-84
2023/02/08 07:12:04;;;;;;;9.07;5.73;;;;;;;;;;5064238;28;20228;-84
2023/02/08 07:14:31;;;;;;;9.00;5.60;;;;;;;;;;5051345;28;20452;-86
2023/02/08 07:16:58;;;;;;;9.90;6.83;;;;;;;;;;5054415;28;20460;-85
2023/02/08 07:19:26;;;;;;;9.63;6.40;;;;;;;;;;5067338;28;20460;-85
2023/02/08 07:21:53;;;;;;;7.97;6.67;;;;;;;;;;5057614;28;20456;-84
2023/02/08 07:24:20;;;;;;;6.07;5.03;;;;;;;;;;5075565;28;20880;-84
2023/02/08 07:26:47;;;;;;;7.23;5.70;;;;;;;;;;5074979;28;20457;-83
2023/02/08 07:29:14;;;;;;;8.73;6.23;;;;;;;;;;5065312;28;20251;-84
2023/02/08 07:31:41;;;;;;;9.37;5.70;;;;;;;;;;5054972;28;20668;-84
2023/02/08 07:34:07;;;;;;;8.90;5.77;;;;;;;;;;5064492;28;20209;-88
2023/02/08 07:36:35;;;;;;;8.73;5.50;;;;;;;;;;5058243;28;20217;-84
2023/02/08 07:39:02;;;;;;;9.03;6.47;;;;;;;;;;5054802;28;20963;-84
2023/02/08 07:41:29;;;;;;;6.90;5.73;;;;;;;;;;5058248;28;20236;-84
2023/02/08 07:43:59;;;;;;;8.00;6.07;;;;;;;;;;5074922;28;20219;-85
2023/02/08 07:46:26;;;;;;;6.60;5.57;;;;;;;;;;5057369;28;20975;-85
2023/02/08 07:48:52;;;;;;;9.40;6.13;;;;;;;;;;5059123;28;20205;-86
2023/02/08 07:51:19;;;;;;;7.27;6.03;;;;;;;;;;5064050;28;20267;-85
2023/02/08 07:53:47;;;;;;;7.50;5.23;;;;;;;;;;5068273;28;20244;-85
2023/02/08 07:56:14;;;;;;;9.50;6.37;;;;;;;;;;5060819;28;20660;-86
2023/02/08 07:58:41;;;;;;;6.73;5.13;;;;;;;;;;5067631;28;20267;-86
2023/02/08 08:01:08;;;;;;;10.20;7.07;;;;;;;;;;5069669;28;20213;-85
2023/02/08 08:03:34;;;;;;;13.50;9.37;;;;;;;;;;5054837;28;20206;-85
2023/02/08 08:06:01;;;;;;;11.03;8.70;;;;;;;;;;5070165;28;20259;-85
2023/02/08 08:08:28;;;;;;;10.63;7.60;;;;;;;;;;5074386;28;20209;-85
2023/02/08 08:10:56;;;;;;;9.27;7.17;;;;;;;;;;5063617;28;20209;-85
2023/02/08 08:13:23;;;;;;;8.43;6.77;;;;;;;;;;5061813;28;20320;-84
2023/02/08 08:15:50;;;;;;;11.10;7.53;;;;;;;;;;5067100;28;20205;-85
2023/02/08 08:18:17;;;;;;;10.87;7.53;;;;;;;;;;5054102;28;20748;-85
2023/02/08 08:20:43;;;;;;;8.33;6.47;;;;;;;;;;5067898;28;20589;-85
2023/02/08 08:23:10;;;;;;;8.93;6.57;;;;;;;;;;5054316;28;20630;-85
2023/02/08 08:25:37;;;;;;;8.90;5.90;;;;;;;;;;5047844;28;20615;-85
2023/02/08 08:28:06;;;;;;;8.33;6.57;;;;;;;;;;5059606;28;20217;-85
2023/02/08 08:30:32;;;;;;;10.20;6.37;;;;;;;;;;5053699;28;20214;-85
2023/02/08 08:32:59;;;;;;;10.57;6.30;;;;;;;;;;5067413;28;20232;-85
2023/02/08 08:35:26;;;;;;;9.63;6.10;;;;;;;;;;5054175;28;20259;-85
2023/02/08 08:37:53;;;;;;;8.40;5.77;;;;;;;;;;5054064;28;20206;-85
2023/02/08 08:40:20;;;;;;;7.17;5.10;;;;;;;;;;5053498;28;20231;-85
2023/02/08 08:42:46;;;;;;;4.77;4.33;;;;;;;;;;5055033;28;20202;-85
2023/02/08 08:45:15;;;;;;;8.47;4.97;;;;;;;;;;5073834;28;20204;-85
2023/02/08 08:47:42;;;;;;;5.47;4.53;;;;;;;;;;5058399;28;20298;-89
2023/02/08 08:50:09;;;;;;;7.03;5.03;;;;;;;;;;5053522;28;20689;-85
2023/02/08 08:52:35;;;;;;;6.77;5.60;;;;;;;;;;5055417;28;20225;-85
2023/02/08 08:55:02;;;;;;;6.23;5.23;;;;;;;;;;5064673;28;20218;-85
2023/02/08 08:57:29;;;;;;;6.13;4.87;;;;;;;;;;5069388;28;20216;-85
2023/02/08 08:59:56;;;;;;;6.33;4.37;;;;;;;;;;5064110;28;20750;-84
2023/02/08 09:02:24;;;;;;;4.60;3.90;;;;;;;;;;5053100;28;20264;-85
2023/02/08 09:04:51;;;;;;;5.40;4.20;;;;;;;;;;5053510;28;20225;-84
2023/02/08 09:07:18;;;;;;;6.37;4.27;;;;;;;;;;5053425;28;20592;-85
2023/02/08 09:09:46;;;;;;;6.10;5.07;;;;;;;;;;5052990;28;20637;-85
2023/02/08 09:12:14;;;;;;;4.03;3.63;;;;;;;;;;5069375;28;20612;-85
2023/02/08 09:14:41;;;;;;;6.40;5.37;;;;;;;;;;5063607;28;20202;-85
2023/02/08 09:17:08;;;;;;;3.93;3.47;;;;;;;;;;5069874;28;20263;-85
2023/02/08 09:19:36;;;;;;;5.73;3.73;;;;;;;;;;5062906;28;20206;-84
2023/02/08 09:22:02;;;;;;;6.23;4.80;;;;;;;;;;5070471;28;20213;-84
2023/02/08 09:24:29;;;;;;;6.80;4.07;;;;;;;;;;5061907;28;20271;-84
2023/02/08 09:26:56;;;;;;;7.13;3.47;;;;;;;;;;5070894;28;20209;-85
2023/02/08 09:29:23;;;;;;;23.90;14.00;;;;;;;;;;5072881;28;20201;-85
2023/02/08 09:31:50;;;;;;;6.17;4.30;;;;;;;;;;5059926;28;20212;-85
2023/02/08 09:34:17;;;;;;;5.90;3.67;;;;;;;;;;5060996;28;20229;-85
2023/02/08 09:36:45;;;;;;;4.83;3.97;;;;;;;;;;5057411;28;20703;-90
2023/02/08 09:39:14;;;;;;;3.97;3.60;;;;;;;;;;5060729;28;20208;-85
2023/02/08 09:42:21;;;;;;;4.77;3.97;;;;;;;;;;5065930;28;20206;-85
2023/02/08 09:44:58;;;;;;;5.53;4.03;;;;;;;;;;5057079;28;20220;-84
2023/02/08 09:47:30;;;;;;;4.07;2.87;;;;;;;;;;5059621;28;20209;-85
2023/02/08 09:50:00;;;;;;;4.90;3.97;;;;;;;;;;5039749;28;20680;-84
2023/02/08 09:52:34;;;;;;;4.33;3.27;;;;;;;;;;5052604;28;20279;-84
2023/02/08 09:55:05;;;;;;;4.77;3.40;;;;;;;;;;5052332;28;20264;-83
2023/02/08 09:57:34;;;;;;;6.17;4.47;;;;;;;;;;5052460;28;20214;-84
2023/02/08 10:00:03;;;;;;;3.27;2.70;;;;;;;;;;5052226;28;20275;-83
2023/02/08 10:02:33;;;;;;;9.97;4.23;;;;;;;;;;5065736;28;20201;-83
2023/02/08 10:05:02;;;;;;;4.13;3.17;;;;;;;;;;5055106;28;20226;-85
2023/02/08 10:07:31;;;;;;;4.07;3.67;;;;;;;;;;5053926;28;20210;-84
2023/02/08 10:10:01;;;;;;;5.60;4.20;;;;;;;;;;5065724;28;20696;-83
2023/02/08 10:12:37;;;;;;;4.43;3.70;;;;;;;;;;5056918;28;20212;-83
2023/02/08 10:15:14;;;;;;;4.83;3.60;;;;;;;;;;5059161;28;20209;-83
2023/02/08 10:18:04;;;;;;;4.80;3.80;;;;;;;;;;5060187;28;20205;-83
2023/02/08 10:20:50;;;;;;;4.57;3.73;;;;;;;;;;5058340;28;20209;-83
2023/02/08 10:23:34;;;;;;;5.47;3.63;;;;;;;;;;5071402;28;20201;-83
2023/02/08 10:26:09;;;;;;;8.87;6.93;;;;;;;;;;5071482;28;20239;-83
2023/02/08 10:29:00;;;;;;;7.80;4.77;;;;;;;;;;5058151;28;20208;-83
2023/02/08 10:31:37;;;;;;;5.13;4.20;;;;;;;;;;5058036;28;20271;-83
2023/02/08 10:34:12;;;;;;;10.80;4.30;;;;;;;;;;5061734;28;20299;-83
2023/02/08 10:36:40;;;;;;;4.67;4.10;;;;;;;;;;5051795;28;20232;-83
2023/02/08 10:39:15;;;;;;;4.23;3.57;;;;;;;;;;5051452;28;20210;-83
2023/02/08 10:41:43;;;;;;;5.13;3.93;;;;;;;;;;5064810;28;20202;-83
2023/02/08 10:44:18;;;;;;;4.67;3.37;;;;;;;;;;5063737;28;20683;-85
2023/02/08 10:46:57;;;;;;;4.13;3.50;;;;;;;;;;5047731;28;20216;-84
2023/02/08 10:49:34;;;;;;;5.57;4.13;;;;;;;;;;5070948;28;20271;-83
2023/02/08 10:52:01;;;;;;;5.93;4.13;;;;;;;;;;5070626;28;20702;-83
2023/02/08 10:54:29;;;;;;;4.70;4.17;;;;;;;;;;5057829;28;20294;-83
2023/02/08 10:56:57;;;;;;;4.50;3.87;;;;;;;;;;5071050;28;20558;-84
2023/02/08 10:59:27;;;;;;;5.97;4.07;;;;;;;;;;5053289;28;20645;-83
2023/02/08 11:01:54;;;;;;;5.03;3.70;;;;;;;;;;5057159;28;20205;-83
2023/02/08 11:04:24;;;;;;;5.07;4.07;;;;;;;;;;5058361;28;20206;-83
2023/02/08 11:06:53;;;;;;;5.83;4.43;;;;;;;;;;5051209;28;20680;-83
2023/02/08 11:09:26;;;;;;;5.93;4.20;;;;;;;;;;5051857;28;20673;-83
2023/02/08 11:11:54;;;;;;;15.97;8.93;;;;;;;;;;5071174;28;20672;-83
2023/02/08 11:14:30;;;;;;;6.83;4.60;;;;;;;;;;5063834;28;20287;-81
2023/02/08 11:16:58;;;;;;;5.70;4.07;;;;;;;;;;5064540;28;20667;-83
2023/02/08 11:19:33;;;;;;;5.97;4.47;;;;;;;;;;5060309;28;20208;-83
2023/02/08 11:22:04;;;;;;;5.37;4.20;;;;;;;;;;5059355;28;20216;-83
2023/02/08 11:24:39;;;;;;;4.83;4.07;;;;;;;;;;5060873;28;20212;-82
2023/02/08 11:27:18;;;;;;;7.53;5.77;;;;;;;;;;5070534;28;20289;-83
2023/02/08 11:29:46;;;;;;;11.20;6.87;;;;;;;;;;5071424;28;20296;-82
2023/02/08 11:32:20;;;;;;;6.50;4.87;;;;;;;;;;5064023;28;20209;-82
2023/02/08 11:34:50;;;;;;;6.90;5.00;;;;;;;;;;5050450;28;20230;-84
2023/02/08 11:37:19;;;;;;;8.37;5.80;;;;;;;;;;5059150;28;20209;-85
2023/02/08 11:39:50;;;;;;;5.97;4.90;;;;;;;;;;5070614;28;20212;-89
2023/02/08 11:42:23;;;;;;;4.53;4.13;;;;;;;;;;5061265;28;20216;-84
2023/02/08 11:44:50;;;;;;;6.90;3.70;;;;;;;;;;5060469;28;20208;-83
2023/02/08 11:47:24;;;;;;;4.57;4.10;;;;;;;;;;5070689;28;20738;-84
2023/02/08 11:49:52;;;;;;;6.50;5.00;;;;;;;;;;5070784;28;20201;-82
2023/02/08 11:52:21;;;;;;;5.97;4.60;;;;;;;;;;5057276;28;20216;-83
2023/02/08 11:54:48;;;;;;;6.13;5.20;;;;;;;;;;5061626;28;20225;-83
2023/02/08 11:57:18;;;;;;;7.90;5.30;;;;;;;;;;5064056;28;20201;-83
2023/02/08 11:59:46;;;;;;;8.20;5.57;;;;;;;;;;5061514;28;20209;-83
2023/02/08 12:02:33;;;;;;;5.73;4.53;;;;;;;;;;5068577;28;20205;-83
2023/02/08 12:05:00;;;;;;;5.27;4.40;;;;;;;;;;5066018;28;20247;-83
2023/02/08 12:07:37;;;;;;;5.77;4.63;;;;;;;;;;5074696;28;20278;-83
2023/02/08 12:10:39;;;;;;;5.40;4.47;;;;;;;;;;5068723;28;20209;-83
2023/02/08 12:13:30;;;;;;;7.27;5.53;;;;;;;;;;5057867;28;20259;-83
2023/02/08 12:16:08;;;;;;;8.77;5.60;;;;;;;;;;5067058;28;20202;-83
2023/02/08 12:18:48;;;;;;;6.00;4.93;;;;;;;;;;5067416;28;20205;-83
2023/02/08 12:21:18;;;;;;;10.07;5.47;;;;;;;;;;5061582;28;20598;-84
2023/02/08 12:23:50;;;;;;;7.17;4.90;;;;;;;;;;5062929;28;21730;-83
2023/02/08 12:26:22;;;;;;;7.40;6.13;;;;;;;;;;5063513;28;20210;-83
2023/02/08 12:29:01;;;;;;;4.83;4.07;;;;;;;;;;5058307;28;20189;-85
2023/02/08 12:31:38;;;;;;;5.30;4.23;;;;;;;;;;5060632;28;20212;-83
2023/02/08 12:34:10;;;;;;;6.03;4.80;;;;;;;;;;5049988;28;20216;-83
2023/02/08 12:40:48;;;;;;;7.97;5.77;;;;;;;;;;5073277;28;20209;-83
2023/02/08 12:43:00;;;;;;;6.23;5.50;;;;;;;;;;5053960;28;20309;-83
2023/02/08 12:45:43;;;;;;;6.57;5.37;;;;;;;;;;5042290;28;20218;-83
2023/02/08 12:48:38;;;;;;;5.97;4.53;;;;;;;;;;5053252;28;20205;-83
2023/02/08 12:51:13;;;;;;;5.90;5.27;;;;;;;;;;5066886;28;20208;-83
2023/02/08 12:53:44;;;;;;;6.10;4.30;;;;;;;;;;5061972;28;20220;-82
2023/02/08 12:56:15;;;;;;;6.50;4.43;;;;;;;;;;5060383;28;20684;-83
2023/02/08 12:58:44;;;;;;;5.80;4.13;;;;;;;;;;5073347;28;20709;-83
2023/02/08 13:01:15;;;;;;;3.30;3.00;;;;;;;;;;5069219;28;20221;-83
2023/02/08 13:03:45;;;;;;;5.53;4.13;;;;;;;;;;5053484;28;20206;-82
2023/02/08 13:06:16;;;;;;;7.07;3.63;;;;;;;;;;5066526;28;20234;-83
2023/02/08 13:08:47;;;;;;;5.17;4.00;;;;;;;;;;5053562;28;20198;-82
2023/02/08 13:11:18;;;;;;;5.07;4.30;;;;;;;;;;5041072;28;20194;-83
2023/02/08 13:13:55;;;;;;;3.13;2.83;;;;;;;;;;5053075;28;20228;-83
2023/02/08 13:16:25;;;;;;;5.23;4.43;;;;;;;;;;5052489;28;20684;-82
2023/02/08 13:18:56;;;;;;;6.40;4.77;;;;;;;;;;5057616;28;20201;-84
2023/02/08 13:21:25;;;;;;;3.80;3.43;;;;;;;;;;5061061;28;20661;-83
2023/02/08 13:23:52;;;;;;;4.97;3.23;;;;;;;;;;5065749;28;20717;-84
2023/02/08 13:26:23;;;;;;;6.43;4.33;;;;;;;;;;5052962;28;20212;-83
2023/02/08 13:28:51;;;;;;;6.63;4.63;;;;;;;;;;5052926;28;20605;-87
2023/02/08 13:31:20;;;;;;;5.57;3.97;;;;;;;;;;5052730;28;20210;-84
2023/02/08 13:33:49;;;;;;;8.67;5.90;;;;;;;;;;5065351;28;20720;-83
2023/02/08 13:36:26;;;;;;;5.27;3.50;;;;;;;;;;5052561;28;20297;-83
2023/02/08 13:38:54;;;;;;;3.87;3.17;;;;;;;;;;5052800;28;20772;-83
2023/02/08 13:41:22;;;;;;;4.17;3.77;;;;;;;;;;5052439;28;20643;-86
2023/02/08 13:43:51;;;;;;;5.50;3.73;;;;;;;;;;5052327;28;20201;-83
2023/02/08 13:46:19;;;;;;;4.43;3.90;;;;;;;;;;5068591;28;20651;-83
2023/02/08 13:48:48;;;;;;;5.27;4.30;;;;;;;;;;5062820;28;20689;-82
2023/02/08 13:51:54;;;;;;;5.80;4.53;;;;;;;;;;5066006;28;20276;-82
2023/02/08 13:54:21;;;;;;;4.33;3.27;;;;;;;;;;5055023;28;20233;-83
2023/02/08 13:56:49;;;;;;;5.40;2.43;;;;;;;;;;5063083;28;20631;-82
2023/02/08 13:59:32;;;;;;;3.50;3.17;;;;;;;;;;5054855;28;20765;-83
2023/02/08 14:02:21;;;;;;;4.23;3.50;;;;;;;;;;5060137;28;20194;-83
2023/02/08 14:04:48;;;;;;;4.30;3.53;;;;;;;;;;5048287;28;20269;-83
2023/02/08 14:07:24;;;;;;;5.10;3.20;;;;;;;;;;5071415;28;20205;-83
2023/02/08 14:10:03;;;;;;;3.80;3.40;;;;;;;;;;5062353;28;20207;-83
2023/02/08 14:12:36;;;;;;;3.60;3.10;;;;;;;;;;5070788;28;20204;-83
2023/02/08 14:15:28;;;;;;;3.93;3.33;;;;;;;;;;5072078;28;20258;-83
2023/02/08 14:17:55;;;;;;;6.33;3.60;;;;;;;;;;5034670;28;20205;-83
2023/02/08 14:20:28;;;;;;;3.67;3.27;;;;;;;;;;5065373;28;20228;-83
2023/02/08 14:22:57;;;;;;;4.30;3.60;;;;;;;;;;5063429;28;20593;-83
2023/02/08 14:25:26;;;;;;;5.70;3.93;;;;;;;;;;5053041;28;20201;-83
2023/02/08 14:27:54;;;;;;;4.67;3.97;;;;;;;;;;5063382;28;20205;-87
2023/02/08 14:30:25;;;;;;;3.50;3.07;;;;;;;;;;5057975;28;20209;-83
2023/02/08 14:32:55;;;;;;;4.07;3.67;;;;;;;;;;5059200;28;20216;-83
2023/02/08 14:35:23;;;;;;;5.73;3.83;;;;;;;;;;5051940;28;20673;-83
2023/02/08 14:38:11;;;;;;;4.33;3.50;;;;;;;;;;5052126;28;20206;-82
2023/02/08 14:41:01;;;;;;;4.63;3.83;;;;;;;;;;5070994;28;20262;-83
2023/02/08 14:43:30;;;;;;;3.10;2.70;;;;;;;;;;5045299;28;20212;-83
2023/02/08 14:45:57;;;;;;;4.87;3.70;;;;;;;;;;5070635;28;20204;-83
2023/02/08 14:48:26;;;;;;;3.83;3.00;;;;;;;;;;5051570;28;20198;-86
2023/02/08 14:51:02;;;;;;;5.33;4.13;;;;;;;;;;5064257;28;20197;-83
2023/02/08 14:53:35;;;;;;;5.00;3.63;;;;;;;;;;5051469;28;20262;-82
2023/02/08 14:56:07;;;;;;;4.40;4.00;;;;;;;;;;5064140;28;20226;-83
2023/02/08 14:58:36;;;;;;;6.10;5.17;;;;;;;;;;5063095;28;20236;-83
2023/02/08 15:01:07;;;;;;;4.73;3.93;;;;;;;;;;5052881;28;20679;-83
2023/02/08 15:03:35;;;;;;;6.73;4.77;;;;;;;;;;5063319;28;20680;-83
2023/02/08 15:06:43;;;;;;;5.00;4.00;;;;;;;;;;5065224;28;20218;-83